Terminal Aerodrome Forecast
Issued by NWS Corpus Christi, TX

Home | Current Version | Previous Version | Text Only | Print | Product List | Glossary On
Versions: 1 2 3 4 5 6 7 8 9 10 11 12 13 14 15 16 17 18 19 20 21 22 23 24 25 26 27 28 29 30
762
FTUS44 KCRP 241722
TAFCRP
TAF
KCRP 241722Z 2418/2518 14022G30KT P6SM SCT015 BKN025 OVC250
     FM242100 16010KT P6SM SCT025
     FM250200 14010KT P6SM VCTS BKN025CB
      TEMPO 2503/2506 VRB20G30KT 4SM -TSRA BKN015CB
     FM250600 35010KT P6SM SCT025 BKN050
      TEMPO 2506/2509 BKN025
     FM251400 35008KT P6SM SKC=

USA.gov is the U.S. government's official web portal to all federal, state and local government web resources and services.